Time;durP1;ratioP1;P1;durP2;ratioP2;P2;SDS_P1;SDS_P2;PMS_P1;PMS_P2;Temp;Humidity;BMP_temperature;BMP_pressure;BME280_temperature;BME280_humidity;BME280_pressure;Samples;Min_cycle;Max_cycle;Signal;HPM_P1;HPM_P2
2023/07/14 00:00:15;;;;;;;3.90;1.13;;;16.80;99.90;;;;;;5026382;28;22039;-87
2023/07/14 00:02:41;;;;;;;1.13;0.80;;;16.80;99.90;;;;;;5032028;28;20471;-87
2023/07/14 00:05:17;;;;;;;1.53;1.30;;;16.80;99.90;;;;;;5031740;28;20492;-87
2023/07/14 00:07:44;;;;;;;3.13;1.33;;;16.70;99.90;;;;;;5035540;28;20474;-87
2023/07/14 00:10:16;;;;;;;2.57;1.30;;;16.70;99.90;;;;;;5034842;28;20435;-88
2023/07/14 00:12:42;;;;;;;3.50;1.47;;;16.80;99.90;;;;;;5028015;28;20455;-87
2023/07/14 00:15:08;;;;;;;5.17;2.00;;;16.90;99.90;;;;;;5030619;28;20442;-87
2023/07/14 00:17:34;;;;;;;1.67;1.17;;;;;;;;;;5031713;28;20250;-88
2023/07/14 00:20:00;;;;;;;3.33;1.73;;;16.70;99.90;;;;;;5036444;28;20442;-86
2023/07/14 00:22:26;;;;;;;2.40;1.33;;;;;;;;;;5029911;28;20506;-87
2023/07/14 00:24:51;;;;;;;1.83;1.30;;;16.40;99.90;;;;;;5046247;28;20207;-86
2023/07/14 00:27:20;;;;;;;3.03;1.50;;;16.30;99.90;;;;;;5033963;28;20947;-87
2023/07/14 00:29:47;;;;;;;3.30;1.30;;;;;;;;;;5029733;28;20185;-86
2023/07/14 00:32:17;;;;;;;1.97;0.93;;;16.30;99.90;;;;;;5035360;28;20451;-88
2023/07/14 00:34:43;;;;;;;1.67;1.27;;;16.20;99.90;;;;;;5035950;28;20438;-87
2023/07/14 00:37:09;;;;;;;2.13;1.40;;;16.30;99.90;;;;;;5038937;28;20431;-88
2023/07/14 00:39:34;;;;;;;2.20;1.53;;;16.20;99.90;;;;;;5036562;28;20423;-87
2023/07/14 00:42:00;;;;;;;10.17;1.40;;;;;;;;;;5033837;28;20381;-88
2023/07/14 00:44:27;;;;;;;3.20;1.70;;;16.20;99.90;;;;;;5048950;28;20182;-87
2023/07/14 00:46:53;;;;;;;2.60;1.53;;;;;;;;;;5038396;28;20439;-87
2023/07/14 00:49:28;;;;;;;5.03;2.10;;;16.00;99.90;;;;;;5055688;28;20475;-87
2023/07/14 00:52:04;;;;;;;4.63;1.43;;;16.10;99.90;;;;;;5036501;28;20512;-87
2023/07/14 00:54:30;;;;;;;5.07;1.60;;;16.10;99.90;;;;;;5035997;28;20934;-87
2023/07/14 00:56:56;;;;;;;5.20;1.47;;;;;;;;;;5042965;28;20484;-87
2023/07/14 00:59:30;;;;;;;3.30;1.37;;;15.80;99.90;;;;;;5055520;28;20185;-86
2023/07/14 01:02:11;;;;;;;1.10;1.00;;;15.70;99.90;;;;;;5056403;28;20455;-87
2023/07/14 01:04:58;;;;;;;4.93;1.10;;;15.70;99.90;;;;;;5036514;28;21154;-87
2023/07/14 01:07:31;;;;;;;2.10;1.20;;;15.60;99.90;;;;;;5036361;28;20463;-87
2023/07/14 01:09:58;;;;;;;1.93;1.43;;;15.50;99.90;;;;;;5037094;28;20474;-85
2023/07/14 01:12:26;;;;;;;2.20;1.33;;;15.40;99.90;;;;;;5031612;28;20455;-87
2023/07/14 01:14:54;;;;;;;3.47;1.90;;;15.40;99.90;;;;;;5037320;28;20431;-86
2023/07/14 01:17:21;;;;;;;3.10;1.40;;;15.50;99.90;;;;;;5043334;28;20432;-87
2023/07/14 01:19:47;;;;;;;3.03;1.40;;;;;;;;;;5040344;28;20585;-87
2023/07/14 01:22:48;;;;;;;2.00;1.33;;;15.50;99.90;;;;;;5033094;28;21367;-87
2023/07/14 01:25:36;;;;;;;4.13;2.00;;;15.50;99.90;;;;;;5028483;28;20438;-86
2023/07/14 01:28:07;;;;;;;2.27;1.30;;;15.60;99.90;;;;;;5022671;28;20504;-87
2023/07/14 01:30:33;;;;;;;3.50;1.40;;;15.60;99.90;;;;;;5029328;28;20455;-86
2023/07/14 01:32:59;;;;;;;3.07;1.87;;;;;;;;;;5029068;28;20463;-87
2023/07/14 01:35:31;;;;;;;5.07;1.83;;;15.40;99.90;;;;;;5027780;28;20439;-87
2023/07/14 01:37:57;;;;;;;2.70;1.73;;;;;;;;;;5032682;28;20987;-88
2023/07/14 01:40:24;;;;;;;1.30;1.10;;;15.30;99.90;;;;;;5045619;28;20998;-86
2023/07/14 01:42:55;;;;;;;1.67;1.50;;;15.20;99.90;;;;;;5037622;28;20542;-86
2023/07/14 01:45:23;;;;;;;3.17;1.50;;;15.00;99.90;;;;;;5035396;28;20467;-87
2023/07/14 01:47:52;;;;;;;3.47;1.20;;;15.10;99.90;;;;;;5036879;28;21290;-86
2023/07/14 01:50:23;;;;;;;4.70;1.40;;;15.10;99.90;;;;;;5031651;28;20450;-86
2023/07/14 01:52:54;;;;;;;2.10;1.30;;;15.20;99.90;;;;;;5039073;28;20459;-87
2023/07/14 01:55:20;;;;;;;4.73;1.50;;;15.20;99.90;;;;;;5036405;28;20443;-87
2023/07/14 01:57:48;;;;;;;1.40;1.30;;;15.20;99.90;;;;;;5036735;28;21009;-86
2023/07/14 02:00:16;;;;;;;3.33;1.60;;;15.20;99.90;;;;;;5036245;28;20528;-87
2023/07/14 02:02:44;;;;;;;4.63;2.17;;;15.10;99.90;;;;;;5033826;28;20513;-87
2023/07/14 02:05:41;;;;;;;3.20;1.80;;;15.00;99.90;;;;;;5033732;28;20448;-86
2023/07/14 02:08:13;;;;;;;1.97;1.23;;;14.90;99.90;;;;;;5036185;28;20463;-87
2023/07/14 02:10:39;;;;;;;2.57;1.80;;;14.90;99.90;;;;;;5037677;28;21140;-86
2023/07/14 02:13:05;;;;;;;5.17;3.33;;;15.00;99.90;;;;;;5036001;28;20454;-87
2023/07/14 02:15:33;;;;;;;7.90;3.03;;;14.80;99.90;;;;;;5048120;28;20185;-87
2023/07/14 02:17:59;;;;;;;4.70;1.87;;;14.80;99.90;;;;;;5043782;28;20485;-86
2023/07/14 02:20:28;;;;;;;1.43;1.33;;;14.90;99.90;;;;;;5039793;28;20443;-87
2023/07/14 02:22:55;;;;;;;4.47;2.47;;;14.80;99.90;;;;;;5055798;28;20455;-87
2023/07/14 02:25:23;;;;;;;3.53;2.20;;;14.80;99.90;;;;;;5032050;28;20530;-88
2023/07/14 02:27:48;;;;;;;3.73;1.73;;;14.80;99.90;;;;;;5036445;28;20454;-86
2023/07/14 02:30:20;;;;;;;5.10;1.70;;;14.80;99.90;;;;;;5034525;28;20452;-87
2023/07/14 02:32:51;;;;;;;3.97;1.93;;;14.80;99.90;;;;;;5028326;28;20207;-86
2023/07/14 02:35:33;;;;;;;4.00;1.93;;;14.80;99.90;;;;;;5032025;28;21913;-88
2023/07/14 02:38:18;;;;;;;2.13;1.70;;;14.70;99.90;;;;;;5036232;28;20427;-87
2023/07/14 02:40:49;;;;;;;3.10;1.60;;;14.60;99.90;;;;;;5033332;28;20509;-87
2023/07/14 02:43:17;;;;;;;5.57;1.53;;;14.60;99.90;;;;;;5049701;28;20443;-87
2023/07/14 02:45:57;;;;;;;3.57;1.50;;;14.40;99.90;;;;;;5048196;28;20807;-88
2023/07/14 02:48:45;;;;;;;9.80;2.20;;;14.40;99.90;;;;;;5049126;28;20533;-86
2023/07/14 02:51:11;;;;;;;2.97;1.30;;;14.40;99.90;;;;;;5029273;28;20880;-86
2023/07/14 02:53:37;;;;;;;3.97;1.90;;;;;;;;;;5037135;28;21383;-86
2023/07/14 02:56:03;;;;;;;2.50;1.50;;;;;;;;;;5031377;28;20441;-86
2023/07/14 02:58:29;;;;;;;4.47;1.40;;;;;;;;;;5035787;28;20757;-85
2023/07/14 03:00:55;;;;;;;8.40;1.53;;;14.20;99.90;;;;;;5033268;28;21028;-86
2023/07/14 03:03:21;;;;;;;3.97;2.00;;;;;;;;;;5031803;28;20447;-86
2023/07/14 03:05:47;;;;;;;3.57;1.90;;;;;;;;;;5026153;28;20189;-86
2023/07/14 03:08:15;;;;;;;2.10;1.27;;;14.10;99.90;;;;;;5047371;28;20467;-84
2023/07/14 03:10:42;;;;;;;2.50;1.60;;;14.10;99.90;;;;;;5033605;28;20454;-86
2023/07/14 03:13:07;;;;;;;2.70;1.73;;;14.10;99.90;;;;;;5043322;28;20457;-85
2023/07/14 03:15:33;;;;;;;2.23;1.50;;;;;;;;;;5043753;28;20971;-86
2023/07/14 03:18:00;;;;;;;3.07;1.70;;;14.20;99.90;;;;;;5044300;28;20185;-87
2023/07/14 03:20:26;;;;;;;1.93;1.33;;;;;;;;;;5045429;28;20478;-86
2023/07/14 03:22:52;;;;;;;2.10;1.70;;;;;;;;;;5051749;28;20485;-84
2023/07/14 03:25:17;;;;;;;2.30;1.77;;;;;;;;;;5029833;28;20443;-85
2023/07/14 03:27:45;;;;;;;2.27;1.30;;;;;;;;;;5023762;28;21250;-85
2023/07/14 03:30:11;;;;;;;3.90;1.33;;;14.30;99.90;;;;;;5029101;28;20455;-84
2023/07/14 03:32:37;;;;;;;5.80;1.60;;;;;;;;;;5031900;28;20542;-86
2023/07/14 03:35:03;;;;;;;1.80;1.50;;;;;;;;;;5037685;28;20613;-86
2023/07/14 03:37:29;;;;;;;1.98;1.30;;;14.20;99.90;;;;;;5049604;28;20439;-84
2023/07/14 03:39:55;;;;;;;4.67;2.10;;;;;;;;;;5038650;28;20272;-85
2023/07/14 03:42:21;;;;;;;3.17;1.70;;;14.20;99.90;;;;;;5033752;28;20251;-86
2023/07/14 03:44:47;;;;;;;4.30;1.70;;;;;;;;;;5036590;28;21015;-86
2023/07/14 03:47:12;;;;;;;2.07;1.53;;;14.30;99.90;;;;;;5030484;28;20471;-87
2023/07/14 03:49:38;;;;;;;5.23;1.80;;;;;;;;;;5034196;28;20503;-86
2023/07/14 03:52:04;;;;;;;4.73;1.83;;;;;;;;;;5039664;28;20208;-87
2023/07/14 03:54:31;;;;;;;3.23;1.40;;;14.40;99.90;;;;;;5049998;28;20427;-87
2023/07/14 03:56:58;;;;;;;6.03;1.97;;;;;;;;;;5035266;28;20438;-87
2023/07/14 03:59:25;;;;;;;4.13;1.80;;;14.40;99.90;;;;;;5036584;28;20454;-86
2023/07/14 04:01:51;;;;;;;3.27;2.00;;;;;;;;;;5035207;28;20226;-87
2023/07/14 04:04:18;;;;;;;3.03;2.03;;;14.80;99.90;;;;;;5035889;28;20443;-88
2023/07/14 04:06:44;;;;;;;2.30;1.90;;;15.00;99.90;;;;;;5040042;28;20898;-88
2023/07/14 04:09:09;;;;;;;2.73;2.10;;;15.50;99.90;;;;;;5032875;28;20487;-88
2023/07/14 04:11:35;;;;;;;3.37;1.40;;;;;;;;;;5029127;28;20201;-87
2023/07/14 04:14:06;;;;;;;1.70;1.47;;;16.20;99.90;;;;;;5037664;28;20177;-86
2023/07/14 04:16:32;;;;;;;2.97;2.00;;;;;;;;;;5036200;28;20555;-86
2023/07/14 04:18:57;;;;;;;2.90;2.30;;;16.40;99.90;;;;;;5043079;28;20542;-87
2023/07/14 04:21:24;;;;;;;4.93;1.80;;;;;;;;;;5030422;28;20471;-85
2023/07/14 04:23:55;;;;;;;1.87;1.67;;;16.50;99.90;;;;;;5032145;28;21318;-86
2023/07/14 04:26:22;;;;;;;3.80;2.30;;;16.60;99.90;;;;;;5032755;28;20495;-85
2023/07/14 04:28:48;;;;;;;4.37;2.20;;;;;;;;;;5037332;28;20451;-86
2023/07/14 04:31:14;;;;;;;3.40;2.40;;;;;;;;;;5026387;28;21110;-86
2023/07/14 04:33:43;;;;;;;2.03;1.63;;;16.60;99.90;;;;;;5021514;28;20965;-85
2023/07/14 04:36:09;;;;;;;2.50;2.20;;;;;;;;;;5034353;28;20514;-87
2023/07/14 04:38:35;;;;;;;2.33;1.83;;;;;;;;;;5029061;28;20657;-86
2023/07/14 04:41:02;;;;;;;5.13;2.37;;;;;;;;;;5052442;28;20431;-88
2023/07/14 04:43:28;;;;;;;2.20;2.00;;;;;;;;;;5051930;28;20439;-85
2023/07/14 04:45:54;;;;;;;5.00;2.23;;;;;;;;;;5041567;28;20458;-86
2023/07/14 04:48:23;;;;;;;6.77;2.90;;;16.50;99.90;;;;;;5041810;28;20474;-86
2023/07/14 04:50:48;;;;;;;6.20;3.40;;;16.70;99.90;;;;;;5027724;28;20447;-86
2023/07/14 04:53:15;;;;;;;10.00;3.60;;;16.60;99.90;;;;;;5037813;28;20454;-86
2023/07/14 04:55:44;;;;;;;5.63;3.83;;;17.10;99.90;;;;;;5039309;28;20185;-86
2023/07/14 04:58:12;;;;;;;5.13;3.97;;;17.80;99.90;;;;;;5047066;28;20938;-84
2023/07/14 05:00:39;;;;;;;4.67;2.93;;;18.30;99.90;;;;;;5036231;28;20446;-86
2023/07/14 05:03:06;;;;;;;6.60;4.50;;;18.60;99.90;;;;;;5032973;28;20462;-85
2023/07/14 05:05:32;;;;;;;6.77;4.20;;;18.70;99.90;;;;;;5047647;28;20451;-84
2023/07/14 05:08:00;;;;;;;5.17;3.10;;;;;;;;;;5041008;28;20471;-86
2023/07/14 05:10:27;;;;;;;4.27;3.57;;;18.40;99.90;;;;;;5042957;28;20463;-86
2023/07/14 05:12:55;;;;;;;5.40;2.80;;;18.10;99.90;;;;;;5041710;28;20536;-87
2023/07/14 05:15:22;;;;;;;6.73;3.27;;;;;;;;;;5043700;28;20489;-87
2023/07/14 05:17:48;;;;;;;3.33;2.93;;;;;;;;;;5048590;28;21014;-85
2023/07/14 05:20:16;;;;;;;5.07;3.40;;;18.40;99.90;;;;;;5063709;28;20474;-87
2023/07/14 05:22:46;;;;;;;5.73;3.90;;;18.60;99.90;;;;;;5037142;28;20997;-85
2023/07/14 05:25:14;;;;;;;4.70;3.33;;;19.10;99.90;;;;;;5031259;28;20440;-86
2023/07/14 05:27:43;;;;;;;7.20;3.40;;;;;;;;;;5033385;28;20482;-86
2023/07/14 05:30:10;;;;;;;4.83;2.70;;;19.40;99.90;;;;;;5035760;28;21381;-85
2023/07/14 05:32:36;;;;;;;3.90;3.23;;;;;;;;;;5035914;28;20467;-85
2023/07/14 05:35:02;;;;;;;6.80;3.77;;;20.40;99.90;;;;;;5055280;28;21027;-87
2023/07/14 05:37:28;;;;;;;8.80;3.17;;;;;;;;;;5027975;28;20457;-84
2023/07/14 05:39:54;;;;;;;4.50;3.43;;;;;;;;;;5034461;28;20435;-87
2023/07/14 05:42:20;;;;;;;6.37;3.80;;;;;;;;;;5025531;28;20471;-84
2023/07/14 05:44:46;;;;;;;5.30;3.37;;;;;;;;;;5038331;28;20442;-84
2023/07/14 05:47:13;;;;;;;4.87;3.27;;;22.30;99.90;;;;;;5042900;28;20693;-87
2023/07/14 05:49:39;;;;;;;3.27;2.97;;;;;;;;;;5037598;28;20514;-85
2023/07/14 05:52:10;;;;;;;4.00;3.60;;;22.60;99.90;;;;;;5034289;28;20462;-84
2023/07/14 05:54:37;;;;;;;4.53;3.30;;;;;;;;;;5055861;28;20439;-85
2023/07/14 05:57:03;;;;;;;5.00;3.47;;;;;;;;;;5038862;28;20428;-87
2023/07/14 05:59:29;;;;;;;5.43;3.73;;;;;;;;;;5035361;28;20848;-85
2023/07/14 06:01:55;;;;;;;7.90;3.60;;;;;;;;;;5037582;28;20463;-85
2023/07/14 06:04:20;;;;;;;5.87;3.97;;;;;;;;;;5035117;28;20881;-85
2023/07/14 06:06:47;;;;;;;5.13;3.73;;;23.90;99.90;;;;;;5022880;28;20471;-85
2023/07/14 06:09:13;;;;;;;7.33;3.50;;;23.90;99.90;;;;;;5034418;28;20464;-86
2023/07/14 06:11:40;;;;;;;3.83;3.50;;;;;;;;;;5034396;28;20459;-86
2023/07/14 06:14:06;;;;;;;5.00;2.70;;;;;;;;;;5031140;28;20450;-84
2023/07/14 06:16:32;;;;;;;3.93;3.13;;;;;;;;;;5042077;28;20440;-85
2023/07/14 06:18:57;;;;;;;8.30;3.57;;;;;;;;;;5024813;28;22043;-84
2023/07/14 06:21:23;;;;;;;5.97;3.23;;;;;;;;;;5023000;28;20470;-85
2023/07/14 06:23:49;;;;;;;4.70;3.97;;;;;;;;;;5047781;28;20447;-85
2023/07/14 06:26:15;;;;;;;5.07;3.80;;;;;;;;;;5043074;28;20451;-86
2023/07/14 06:28:42;;;;;;;8.23;3.47;;;;;;;;;;5030231;28;20463;-86
2023/07/14 06:31:13;;;;;;;6.07;4.20;;;23.90;99.90;;;;;;5029910;28;22475;-86
2023/07/14 06:33:39;;;;;;;6.67;3.10;;;;;;;;;;5033181;28;20433;-87
2023/07/14 06:36:06;;;;;;;4.00;2.80;;;26.40;99.90;;;;;;5043412;28;20439;-85
2023/07/14 06:38:32;;;;;;;12.03;3.97;;;;;;;;;;5028988;28;20477;-85
2023/07/14 06:40:59;;;;;;;14.30;3.73;;;28.50;95.20;;;;;;5046031;28;20437;-87
2023/07/14 06:43:25;;;;;;;8.90;3.57;;;;;;;;;;5034654;28;20481;-85
2023/07/14 06:45:51;;;;;;;5.57;3.80;;;;;;;;;;5031384;28;20444;-85
2023/07/14 06:48:18;;;;;;;5.87;3.27;;;;;;;;;;5031152;28;20459;-85
2023/07/14 06:50:44;;;;;;;5.37;3.30;;;31.00;75.60;;;;;;5030956;28;20423;-86
2023/07/14 06:53:11;;;;;;;11.43;4.60;;;;;;;;;;5032550;28;21147;-87
2023/07/14 06:55:38;;;;;;;7.13;4.77;;;;;;;;;;5033016;28;20987;-85
2023/07/14 06:58:04;;;;;;;4.03;3.50;;;;;;;;;;5028431;28;20465;-86
2023/07/14 07:00:31;;;;;;;9.50;3.70;;;;;;;;;;5047476;28;20474;-86
2023/07/14 07:02:57;;;;;;;7.73;4.00;;;;;;;;;;5029368;28;21057;-85
2023/07/14 07:05:23;;;;;;;5.83;3.67;;;;;;;;;;5049990;28;20996;-87
2023/07/14 07:07:49;;;;;;;7.83;3.60;;;;;;;;;;5026362;28;20459;-86
2023/07/14 07:10:15;;;;;;;6.83;3.93;;;;;;;;;;5032470;28;21379;-86
2023/07/14 07:12:41;;;;;;;4.50;3.87;;;;;;;;;;5037086;28;20465;-84
2023/07/14 07:15:08;;;;;;;7.07;3.20;;;;;;;;;;5031210;28;20436;-86
2023/07/14 07:17:34;;;;;;;3.37;3.07;;;;;;;;;;5062854;28;20441;-87
2023/07/14 07:20:00;;;;;;;11.80;2.33;;;;;;;;;;5057740;28;20445;-87
2023/07/14 07:22:26;;;;;;;2.70;1.77;;;;;;;;;;5033440;28;20467;-85
2023/07/14 07:24:52;;;;;;;3.00;2.00;;;;;;;;;;5036567;28;20440;-85
2023/07/14 07:27:18;;;;;;;8.40;1.80;;;;;;;;;;5031034;28;20461;-84
2023/07/14 07:29:44;;;;;;;2.60;1.80;;;;;;;;;;5037534;28;20450;-85
2023/07/14 07:32:10;;;;;;;4.10;1.40;;;34.50;46.40;;;;;;5034777;28;21023;-86
2023/07/14 07:34:36;;;;;;;2.20;1.50;;;;;;;;;;5029225;28;20508;-86
2023/07/14 07:37:02;;;;;;;2.40;2.20;;;;;;;;;;5026636;28;20439;-86
2023/07/14 07:39:29;;;;;;;3.07;1.77;;;;;;;;;;5050977;28;20541;-85
2023/07/14 07:41:55;;;;;;;6.53;2.13;;;;;;;;;;5045457;28;21013;-84
2023/07/14 07:44:21;;;;;;;2.20;1.77;;;;;;;;;;5047971;28;20449;-87
2023/07/14 07:46:47;;;;;;;2.23;1.87;;;;;;;;;;5036662;28;20425;-87
2023/07/14 07:49:13;;;;;;;3.43;1.50;;;;;;;;;;5033857;28;20477;-86
2023/07/14 07:51:39;;;;;;;8.30;1.97;;;;;;;;;;5027874;28;20546;-86
2023/07/14 07:54:05;;;;;;;4.27;1.77;;;;;;;;;;5044284;28;20530;-86
2023/07/14 07:56:31;;;;;;;2.07;1.70;;;;;;;;;;5056339;28;20450;-86
2023/07/14 07:58:57;;;;;;;2.03;1.83;;;;;;;;;;5056810;28;20453;-86
2023/07/14 08:01:27;;;;;;;4.80;2.07;;;31.90;49.60;;;;;;5035064;28;20471;-85
2023/07/14 08:03:53;;;;;;;3.43;1.90;;;;;;;;;;5037792;28;20596;-87
2023/07/14 08:06:21;;;;;;;6.70;2.20;;;;;;;;;;5037500;28;20895;-86
2023/07/14 08:08:47;;;;;;;3.70;2.40;;;;;;;;;;5040779;28;20463;-84
2023/07/14 08:11:14;;;;;;;4.10;2.00;;;33.50;47.60;;;;;;5040268;28;20497;-85
2023/07/14 08:13:40;;;;;;;2.97;2.10;;;33.70;47.10;;;;;;5039218;28;20529;-87
2023/07/14 08:16:06;;;;;;;2.30;1.53;;;34.00;57.60;;;;;;5039011;28;21001;-85
2023/07/14 08:18:32;;;;;;;15.10;2.47;;;;;;;;;;5043810;28;20443;-84
2023/07/14 08:20:59;;;;;;;2.10;1.67;;;;;;;;;;5036544;28;20553;-85
2023/07/14 08:23:25;;;;;;;8.40;1.87;;;34.10;45.50;;;;;;5039385;28;20440;-86
2023/07/14 08:25:57;;;;;;;3.67;1.80;;;34.10;45.90;;;;;;5038227;28;20893;-83
2023/07/14 08:28:23;;;;;;;4.20;1.67;;;;;;;;;;5025196;28;20452;-85
2023/07/14 08:30:51;;;;;;;8.43;1.70;;;34.60;46.70;;;;;;5034548;28;20496;-84
2023/07/14 08:33:19;;;;;;;2.37;1.83;;;35.20;45.10;;;;;;5033749;28;20658;-85
2023/07/14 08:35:48;;;;;;;2.70;1.57;;;34.30;43.30;;;;;;5046829;28;20437;-84
2023/07/14 08:38:14;;;;;;;3.13;2.10;;;;;;;;;;5040109;28;20494;-85
2023/07/14 08:41:14;;;;;;;1.90;1.70;;;33.50;44.90;;;;;;5040782;28;20431;-85
2023/07/14 08:44:05;;;;;;;6.80;2.27;;;32.80;44.80;;;;;;5038621;28;20449;-86
2023/07/14 08:46:53;;;;;;;1.90;1.33;;;31.60;45.00;;;;;;5055068;28;20956;-86
2023/07/14 08:49:55;;;;;;;3.17;1.60;;;30.90;46.00;;;;;;5034595;28;20454;-87
2023/07/14 08:52:21;;;;;;;7.00;2.10;;;;;;;;;;5036357;28;20466;-86
2023/07/14 08:54:57;;;;;;;2.40;1.80;;;30.80;46.00;;;;;;5042961;28;20425;-88
2023/07/14 08:57:24;;;;;;;2.13;1.70;;;30.40;47.60;;;;;;5063233;28;20433;-89
2023/07/14 08:59:55;;;;;;;3.20;1.80;;;29.80;47.70;;;;;;5034952;28;20446;-86
2023/07/14 09:02:47;;;;;;;6.77;2.90;;;28.50;49.50;;;;;;5033405;28;20472;-86
2023/07/14 09:05:34;;;;;;;14.20;3.33;;;28.10;50.10;;;;;;5032099;28;20535;-87
2023/07/14 09:08:00;;;;;;;3.80;1.83;;;;;;;;;;5030691;28;20477;-86
2023/07/14 09:10:49;;;;;;;5.33;2.70;;;27.90;51.20;;;;;;5031330;28;20423;-86
2023/07/14 09:13:21;;;;;;;2.70;1.67;;;28.60;51.60;;;;;;5030818;28;21285;-87
2023/07/14 09:15:47;;;;;;;29.10;5.83;;;;;;;;;;5036728;28;20475;-89
2023/07/14 09:18:30;;;;;;;2.80;1.83;;;30.60;47.70;;;;;;5038367;28;21287;-85
2023/07/14 09:21:08;;;;;;;5.03;1.93;;;30.90;47.00;;;;;;5052911;28;20447;-86
2023/07/14 09:23:53;;;;;;;3.17;1.83;;;27.70;46.30;;;;;;5030558;28;20446;-86
2023/07/14 09:26:35;;;;;;;3.80;2.00;;;30.50;47.20;;;;;;5026390;28;20443;-86
2023/07/14 09:29:11;;;;;;;2.70;1.70;;;30.40;47.20;;;;;;5029237;28;20463;-86
2023/07/14 09:31:44;;;;;;;5.23;1.40;;;30.70;47.50;;;;;;5027084;28;20493;-86
2023/07/14 09:34:32;;;;;;;2.70;2.17;;;30.60;46.80;;;;;;5032890;28;20981;-86
2023/07/14 09:36:58;;;;;;;5.87;2.13;;;;;;;;;;5035755;28;20621;-86
2023/07/14 09:39:42;;;;;;;2.80;1.80;;;30.50;47.00;;;;;;5034911;28;20470;-86
2023/07/14 09:42:16;;;;;;;10.07;1.70;;;30.50;47.40;;;;;;5032277;28;20469;-86
2023/07/14 09:44:43;;;;;;;3.33;1.90;;;;;;;;;;5030679;28;20422;-86
2023/07/14 09:47:09;;;;;;;3.83;1.80;;;;;;;;;;5045403;28;21469;-88
2023/07/14 09:49:35;;;;;;;2.83;1.57;;;;;;;;;;5034261;28;20468;-85
2023/07/14 09:52:21;;;;;;;2.60;1.50;;;30.20;46.40;;;;;;5043332;28;21050;-86
2023/07/14 09:54:55;;;;;;;3.30;1.87;;;29.70;46.40;;;;;;5035611;28;20444;-86
2023/07/14 09:57:24;;;;;;;5.60;2.30;;;29.10;48.80;;;;;;5036682;28;20508;-86
2023/07/14 10:00:10;;;;;;;3.83;1.77;;;29.00;48.20;;;;;;5031224;28;20436;-87
2023/07/14 10:02:37;;;;;;;2.30;1.93;;;;;;;;;;5034922;28;20540;-87
2023/07/14 10:05:23;;;;;;;5.00;2.03;;;28.90;48.80;;;;;;5038059;28;20436;-87
2023/07/14 10:07:49;;;;;;;2.83;2.27;;;;;;;;;;5030255;28;20463;-86
2023/07/14 10:10:24;;;;;;;3.20;2.03;;;29.60;48.40;;;;;;5027118;28;21387;-85
2023/07/14 10:12:50;;;;;;;5.13;2.00;;;;;;;;;;5035203;28;20447;-86
2023/07/14 10:15:50;;;;;;;8.53;1.90;;;29.80;48.20;;;;;;5034038;28;20440;-86
2023/07/14 10:18:16;;;;;;;4.47;1.70;;;;;;;;;;5030321;28;20536;-86
2023/07/14 10:21:01;;;;;;;1.70;1.60;;;30.20;47.80;;;;;;5034145;28;20578;-86
2023/07/14 10:23:27;;;;;;;5.90;1.70;;;29.90;46.60;;;;;;5049693;28;20464;-87
2023/07/14 10:25:53;;;;;;;4.00;2.00;;;;;;;;;;5033340;28;20441;-86
2023/07/14 10:28:23;;;;;;;4.23;3.00;;;29.70;47.80;;;;;;5033854;28;20823;-86
2023/07/14 10:30:49;;;;;;;3.30;1.93;;;;;;;;;;5019504;28;20461;-85
2023/07/14 10:33:46;;;;;;;4.20;2.13;;;29.20;47.70;;;;;;5034674;28;21067;-87
2023/07/14 10:36:18;;;;;;;3.00;2.30;;;29.20;49.00;;;;;;5032881;28;20445;-86
2023/07/14 10:39:11;;;;;;;3.00;1.33;;;29.60;48.30;;;;;;5031236;28;20468;-89
2023/07/14 10:41:37;;;;;;;2.03;1.40;;;;;;;;;;5020962;28;20486;-87
2023/07/14 10:44:13;;;;;;;2.67;1.93;;;30.70;47.30;;;;;;5035875;28;20439;-86
2023/07/14 10:46:45;;;;;;;2.50;2.07;;;31.00;50.40;;;;;;5039019;28;20916;-88
2023/07/14 10:49:25;;;;;;;4.00;2.23;;;30.90;45.30;;;;;;5031867;28;20466;-86
2023/07/14 10:52:00;;;;;;;2.00;1.80;;;30.70;45.80;;;;;;5035490;28;20554;-85
2023/07/14 10:55:12;;;;;;;2.10;1.87;;;30.60;46.00;;;;;;5027694;28;21192;-86
2023/07/14 10:57:44;;;;;;;2.33;1.83;;;30.40;46.20;;;;;;5032401;28;20451;-87
2023/07/14 11:00:19;;;;;;;3.27;2.00;;;30.10;46.30;;;;;;5026412;28;20431;-87
2023/07/14 11:03:07;;;;;;;4.40;2.17;;;29.80;47.50;;;;;;5034912;28;20457;-87
2023/07/14 11:05:33;;;;;;;2.80;1.73;;;29.40;46.30;;;;;;5038840;28;21126;-87
2023/07/14 11:07:59;;;;;;;3.30;2.20;;;;;;;;;;5030609;28;20862;-86
2023/07/14 11:10:25;;;;;;;4.50;1.67;;;29.00;52.70;;;;;;5030267;28;20440;-87
2023/07/14 11:13:01;;;;;;;3.90;1.73;;;28.50;49.60;;;;;;5035086;28;20461;-86
2023/07/14 11:15:44;;;;;;;3.33;1.97;;;28.80;48.50;;;;;;5028291;28;20208;-88
2023/07/14 11:18:21;;;;;;;1.80;1.70;;;29.60;47.40;;;;;;5038127;28;20440;-88
2023/07/14 11:21:12;;;;;;;1.47;1.37;;;29.70;47.10;;;;;;5037993;28;20445;-87
2023/07/14 11:23:51;;;;;;;3.83;1.87;;;29.80;47.00;;;;;;5023611;28;20436;-88
2023/07/14 11:26:30;;;;;;;2.83;1.90;;;29.80;46.40;;;;;;5040436;28;21092;-89
2023/07/14 11:29:08;;;;;;;6.80;2.50;;;30.00;46.40;;;;;;5040759;28;21730;-89
2023/07/14 11:31:40;;;;;;;2.00;1.80;;;30.20;45.50;;;;;;5025149;28;20475;-87
2023/07/14 11:34:29;;;;;;;8.83;2.13;;;30.70;46.10;;;;;;5031217;28;20425;-88
2023/07/14 11:37:14;;;;;;;3.23;1.97;;;30.70;52.50;;;;;;5038899;28;20435;-87
2023/07/14 11:39:40;;;;;;;5.60;2.57;;;;;;;;;;5050938;28;20436;-88
2023/07/14 11:42:19;;;;;;;5.10;1.73;;;31.00;44.90;;;;;;5037472;28;20563;-88
2023/07/14 11:44:47;;;;;;;2.20;1.67;;;31.00;44.20;;;;;;5036562;28;20441;-87
2023/07/14 11:47:20;;;;;;;4.23;2.37;;;30.70;44.90;;;;;;5034180;28;20794;-87
2023/07/14 11:49:51;;;;;;;3.10;1.87;;;30.60;44.40;;;;;;5033928;28;20470;-88
2023/07/14 11:52:28;;;;;;;5.60;4.07;;;30.60;44.00;;;;;;5030047;28;20546;-87
2023/07/14 11:55:05;;;;;;;2.97;1.57;;;30.60;54.70;;;;;;5024934;28;20447;-88
2023/07/14 11:57:50;;;;;;;2.07;1.40;;;30.70;44.60;;;;;;5034543;28;20994;-88
2023/07/14 12:00:28;;;;;;;3.17;2.37;;;29.90;45.10;;;;;;5034550;28;20862;-87
2023/07/14 12:02:56;;;;;;;2.57;2.00;;;;;;;;;;5034660;28;20919;-87
2023/07/14 12:05:32;;;;;;;5.13;1.87;;;29.50;47.30;;;;;;5053004;28;20437;-86
2023/07/14 12:08:04;;;;;;;5.63;2.60;;;29.10;45.20;;;;;;5032952;28;20456;-87
2023/07/14 12:10:38;;;;;;;3.10;2.40;;;29.20;48.00;;;;;;5021728;28;20440;-87
2023/07/14 12:13:25;;;;;;;2.80;2.03;;;29.90;47.60;;;;;;5029268;28;20505;-86
2023/07/14 12:15:57;;;;;;;4.77;2.13;;;30.40;46.50;;;;;;5036830;28;20439;-87
2023/07/14 12:18:31;;;;;;;3.77;1.70;;;30.60;45.70;;;;;;5027277;28;20431;-86
2023/07/14 12:21:14;;;;;;;4.33;1.80;;;30.90;45.10;;;;;;5031376;28;20450;-86
2023/07/14 12:23:41;;;;;;;2.60;2.17;;;31.20;45.60;;;;;;5031216;28;20809;-87
2023/07/14 12:26:15;;;;;;;3.63;1.63;;;31.40;43.60;;;;;;5020134;28;20444;-87
2023/07/14 12:28:41;;;;;;;5.30;2.53;;;;;;;;;;5023362;28;20469;-87
2023/07/14 12:31:16;;;;;;;8.03;2.20;;;31.20;43.10;;;;;;5023905;28;20444;-87
2023/07/14 12:33:43;;;;;;;3.17;2.10;;;30.50;44.50;;;;;;5030045;28;20639;-87
2023/07/14 12:36:16;;;;;;;1.70;1.50;;;30.10;44.70;;;;;;5022407;28;20443;-84
2023/07/14 12:38:47;;;;;;;3.60;2.43;;;30.00;45.20;;;;;;5034953;28;20447;-85
2023/07/14 12:41:14;;;;;;;3.27;2.07;;;;;;;;;;5030115;28;20435;-85
2023/07/14 12:43:46;;;;;;;3.23;2.37;;;30.60;44.10;;;;;;5035499;28;20446;-86
2023/07/14 12:46:24;;;;;;;4.70;1.87;;;30.50;44.00;;;;;;5036257;28;20443;-85
2023/07/14 12:48:56;;;;;;;4.17;2.00;;;30.60;44.40;;;;;;5038731;28;20461;-84
2023/07/14 12:51:23;;;;;;;3.97;1.93;;;;;;;;;;5040209;28;20928;-86
2023/07/14 12:54:12;;;;;;;3.07;1.80;;;30.70;42.70;;;;;;5039226;28;20432;-85
2023/07/14 12:56:38;;;;;;;4.73;2.17;;;;;;;;;;5050268;28;20469;-86
2023/07/14 12:59:04;;;;;;;2.13;1.90;;;;;;;;;;5036756;28;20464;-85
2023/07/14 13:01:32;;;;;;;4.40;1.73;;;;;;;;;;5029721;28;20455;-85
2023/07/14 13:03:58;;;;;;;3.60;2.07;;;;;;;;;;5032661;28;20541;-85
2023/07/14 13:06:24;;;;;;;3.07;1.73;;;;;;;;;;5044633;28;20442;-85
2023/07/14 13:08:52;;;;;;;2.90;2.20;;;29.90;44.50;;;;;;5057142;28;20550;-85
2023/07/14 13:11:23;;;;;;;3.73;2.00;;;30.20;44.70;;;;;;5031552;28;20468;-84
2023/07/14 13:13:54;;;;;;;3.50;1.60;;;30.20;44.50;;;;;;5031838;28;20441;-86
2023/07/14 13:16:28;;;;;;;2.50;2.20;;;30.20;43.60;;;;;;5030415;28;20900;-86
2023/07/14 13:18:56;;;;;;;4.57;2.40;;;30.20;44.30;;;;;;5048981;28;20439;-85
2023/07/14 13:21:36;;;;;;;1.87;1.57;;;30.40;44.00;;;;;;5031676;28;20471;-85
2023/07/14 13:24:15;;;;;;;2.93;2.13;;;30.40;43.20;;;;;;5046343;28;20490;-85
2023/07/14 13:27:08;;;;;;;3.97;1.90;;;30.20;44.00;;;;;;5028134;28;20450;-86
2023/07/14 13:29:36;;;;;;;3.13;2.00;;;30.00;44.30;;;;;;5030119;28;20556;-85
2023/07/14 13:32:21;;;;;;;2.23;1.77;;;29.80;44.10;;;;;;5027952;28;21222;-85
2023/07/14 13:34:55;;;;;;;7.00;1.90;;;29.90;44.20;;;;;;5027189;28;21274;-87
2023/07/14 13:37:21;;;;;;;5.40;1.70;;;;;;;;;;5029772;28;20447;-87
2023/07/14 13:39:58;;;;;;;4.20;1.67;;;29.60;43.90;;;;;;5029124;28;20441;-88
2023/07/14 13:42:34;;;;;;;6.03;1.90;;;29.60;44.80;;;;;;5023044;28;20517;-86
2023/07/14 13:45:05;;;;;;;2.87;2.33;;;29.50;44.00;;;;;;5029010;28;21140;-88